Time;durP1;ratioP1;P1;durP2;ratioP2;P2;SDS_P1;SDS_P2;PMS_P1;PMS_P2;Temp;Humidity;BMP_temperature;BMP_pressure;BME280_temperature;BME280_humidity;BME280_pressure;Samples;Min_cycle;Max_cycle;Signal;HPM_P1;HPM_P2
2021/06/05 00:00:54;;;;;;;14.23;11.32;;;;;;;;;;1497472;39;20023;-58
2021/06/05 00:01:56;;;;;;;12.55;10.65;;;;;;;;;;1497289;39;20035;-59
2021/06/05 00:02:58;;;;;;;13.00;10.98;;;;;;;;;;1497258;39;20035;-58
2021/06/05 00:04:00;;;;;;;12.30;10.63;;;;;;;;;;1497418;39;20027;-59
2021/06/05 00:05:01;;;;;;;13.27;11.13;;;;;;;;;;1497302;39;20317;-59
2021/06/05 00:06:03;;;;;;;12.48;11.13;;;;;;;;;;1497451;39;20027;-59
2021/06/05 00:07:04;;;;;;;12.30;10.70;;;;;;;;;;1497448;39;20048;-58
2021/06/05 00:08:06;;;;;;;12.48;10.90;;;;;;;;;;1497248;39;20027;-58
2021/06/05 00:09:14;;;;;;;14.90;12.23;;;;;;;;;;1497427;39;20034;-59
2021/06/05 00:10:18;;;;;;;17.65;13.50;;;;;;;;;;1497290;39;20118;-57
2021/06/05 00:11:24;;;;;;;14.75;11.82;;;;;;;;;;1497215;39;20383;-59
2021/06/05 00:12:28;;;;;;;15.25;12.43;;;;;;;;;;1497430;39;20034;-59
2021/06/05 00:13:31;;;;;;;12.65;10.82;;;;;;;;;;1497394;39;20032;-59
2021/06/05 00:14:32;;;;;;;12.70;11.38;;;;;;;;;;1497445;39;20023;-58
2021/06/05 00:15:38;;;;;;;12.73;11.40;;;;;;;;;;1497249;39;20031;-58
2021/06/05 00:16:43;;;;;;;12.40;10.90;;;;;;;;;;1497255;39;20035;-58
2021/06/05 00:17:44;;;;;;;14.68;12.25;;;;;;;;;;1497418;39;20042;-59
2021/06/05 00:18:46;;;;;;;16.92;12.95;;;;;;;;;;1497455;39;20075;-59
2021/06/05 00:19:48;;;;;;;15.43;12.10;;;;;;;;;;1497371;39;20039;-59
2021/06/05 00:20:49;;;;;;;12.45;10.57;;;;;;;;;;1492494;39;20046;-60
2021/06/05 00:21:51;;;;;;;13.13;11.07;;;;;;;;;;1492501;39;20131;-59
2021/06/05 00:22:52;;;;;;;13.45;10.90;;;;;;;;;;1497393;39;20039;-59
2021/06/05 00:23:54;;;;;;;14.07;10.80;;;;;;;;;;1497215;39;20036;-59
2021/06/05 00:24:55;;;;;;;13.05;10.50;;;;;;;;;;1497390;39;20294;-58
2021/06/05 00:25:58;;;;;;;13.00;11.60;;;;;;;;;;1497186;39;20020;-58
2021/06/05 00:27:00;;;;;;;12.55;11.25;;;;;;;;;;1497391;39;20032;-59
2021/06/05 00:28:01;;;;;;;13.10;11.48;;;;;;;;;;1497195;39;20124;-59
2021/06/05 00:29:03;;;;;;;13.52;11.90;;;;;;;;;;1497203;39;20036;-59
2021/06/05 00:30:06;;;;;;;14.68;12.25;;;;;;;;;;1497177;39;20027;-58
2021/06/05 00:31:07;;;;;;;16.52;13.30;;;;;;;;;;1497369;39;20024;-59
2021/06/05 00:32:09;;;;;;;16.75;12.13;;;;;;;;;;1497366;39;20129;-59
2021/06/05 00:33:11;;;;;;;12.18;10.85;;;;;;;;;;1497206;39;20024;-60
2021/06/05 00:34:13;;;;;;;16.83;12.30;;;;;;;;;;1497387;39;20031;-59
2021/06/05 00:35:14;;;;;;;11.68;10.52;;;;;;;;;;1497287;39;20111;-58
2021/06/05 00:36:16;;;;;;;13.95;12.40;;;;;;;;;;1497194;39;20483;-58
2021/06/05 00:37:17;;;;;;;12.82;11.38;;;;;;;;;;1497385;39;20020;-59
2021/06/05 00:38:19;;;;;;;14.02;10.90;;;;;;;;;;1497184;39;20383;-61
2021/06/05 00:39:20;;;;;;;14.68;11.88;;;;;;;;;;1497377;39;20034;-58
2021/06/05 00:40:24;;;;;;;14.32;11.55;;;;;;;;;;1497113;39;20058;-58
2021/06/05 00:41:27;;;;;;;13.93;12.43;;;;;;;;;;1497150;39;20383;-58
2021/06/05 00:42:30;;;;;;;20.20;13.98;;;;;;;;;;1497275;39;20031;-58
2021/06/05 00:43:37;;;;;;;17.35;13.15;;;;;;;;;;1497297;39;20111;-59
2021/06/05 00:44:39;;;;;;;13.85;12.30;;;;;;;;;;1497415;39;20034;-59
2021/06/05 00:45:42;;;;;;;14.27;12.82;;;;;;;;;;1497319;39;20107;-59
2021/06/05 00:46:44;;;;;;;15.63;11.85;;;;;;;;;;1497317;39;20111;-59
2021/06/05 00:47:46;;;;;;;13.57;12.18;;;;;;;;;;1497114;39;20127;-59
2021/06/05 00:48:48;;;;;;;13.05;11.75;;;;;;;;;;1497257;39;20032;-58
2021/06/05 00:49:49;;;;;;;14.70;12.45;;;;;;;;;;1497122;39;20368;-59
2021/06/05 00:50:52;;;;;;;14.13;12.70;;;;;;;;;;1497360;39;20112;-59
2021/06/05 00:51:56;;;;;;;16.67;12.55;;;;;;;;;;1497269;39;20053;-59
2021/06/05 00:52:57;;;;;;;13.35;11.95;;;;;;;;;;1497121;39;20034;-59
2021/06/05 00:53:58;;;;;;;15.32;12.40;;;;;;;;;;1497146;39;20034;-59
2021/06/05 00:55:00;;;;;;;16.83;12.93;;;;;;;;;;1497330;39;20031;-59
2021/06/05 00:56:05;;;;;;;14.57;13.07;;;;;;;;;;1497353;39;20027;-59
2021/06/05 00:57:07;;;;;;;15.63;12.25;;;;;;;;;;1497235;39;20280;-59
2021/06/05 00:58:11;;;;;;;14.40;12.60;;;;;;;;;;1497274;39;20042;-57
2021/06/05 00:59:12;;;;;;;14.68;12.25;;;;;;;;;;1497172;39;20107;-59
2021/06/05 01:00:16;;;;;;;14.35;12.77;;;;;;;;;;1497059;39;20027;-59
2021/06/05 01:01:22;;;;;;;14.05;12.63;;;;;;;;;;1497115;39;20031;-58
2021/06/05 01:02:23;;;;;;;15.63;13.57;;;;;;;;;;1497233;39;20054;-58
2021/06/05 01:03:25;;;;;;;14.95;13.43;;;;;;;;;;1497187;39;20023;-59
2021/06/05 01:04:26;;;;;;;18.60;14.27;;;;;;;;;;1497369;39;20023;-59
2021/06/05 01:05:28;;;;;;;15.55;13.90;;;;;;;;;;1492473;39;20101;-59
2021/06/05 01:06:34;;;;;;;15.82;12.98;;;;;;;;;;1492543;39;20389;-58
2021/06/05 01:07:36;;;;;;;15.10;12.65;;;;;;;;;;1497164;39;20031;-58
2021/06/05 01:08:42;;;;;;;15.68;13.02;;;;;;;;;;1497082;39;20030;-58
2021/06/05 01:09:57;;;;;;;19.70;14.50;;;;;;;;;;1497359;39;20032;-59
2021/06/05 01:11:07;;;;;;;19.52;14.98;;;;;;;;;;1497089;39;20035;-58
2021/06/05 01:12:10;;;;;;;;;;;;;;;;;;1497669;39;20042;-59
2021/06/05 01:13:18;;;;;;;14.50;11.93;;;;;;;;;;1497165;39;20011;-59
2021/06/05 01:14:26;;;;;;;15.93;13.48;;;;;;;;;;1497118;39;20413;-58
2021/06/05 01:15:30;;;;;;;15.50;13.13;;;;;;;;;;1497377;39;20031;-58
2021/06/05 01:16:32;;;;;;;18.05;14.63;;;;;;;;;;1497066;39;20514;-59
2021/06/05 01:17:38;;;;;;;17.58;15.23;;;;;;;;;;1497240;39;20034;-59
2021/06/05 01:18:42;;;;;;;15.15;13.55;;;;;;;;;;1497102;39;20284;-59
2021/06/05 01:19:51;;;;;;;16.20;14.07;;;;;;;;;;1497208;39;20028;-58
2021/06/05 01:21:02;;;;;;;16.52;13.23;;;;;;;;;;1492535;39;20034;-59
2021/06/05 01:22:18;;;;;;;14.45;12.88;;;;;;;;;;1493260;39;20353;-58
2021/06/05 01:23:34;;;;;;;13.90;12.30;;;;;;;;;;1497252;39;20032;-58
2021/06/05 01:24:45;;;;;;;17.58;14.50;;;;;;;;;;1492447;39;20350;-58
2021/06/05 01:26:23;;;;;;;15.00;13.40;;;;;;;;;;1493157;39;20507;-58
2021/06/05 01:27:28;;;;;;;18.30;13.45;;;;;;;;;;1479742;40;20029;-58
2021/06/05 01:28:33;;;;;;;15.27;13.23;;;;;;;;;;1479778;40;20025;-59
2021/06/05 01:29:39;;;;;;;14.73;13.13;;;;;;;;;;1479558;40;20471;-58
2021/06/05 01:30:43;;;;;;;15.52;12.40;;;;;;;;;;1479680;40;20033;-58
2021/06/05 01:31:47;;;;;;;15.05;12.10;;;;;;;;;;1479752;40;20037;-58
2021/06/05 01:32:49;;;;;;;13.95;12.48;;;;;;;;;;1483168;39;20138;-60
2021/06/05 01:33:52;;;;;;;15.60;12.57;;;;;;;;;;1497168;39;20027;-59
2021/06/05 01:34:57;;;;;;;15.63;12.32;;;;;;;;;;1497080;39;20028;-59
2021/06/05 01:35:58;;;;;;;16.77;13.70;;;;;;;;;;1497120;39;20027;-59
2021/06/05 01:37:00;;;;;;;15.07;13.43;;;;;;;;;;1497199;39;20031;-59
2021/06/05 01:38:02;;;;;;;15.68;14.05;;;;;;;;;;1497018;39;20032;-58
2021/06/05 01:39:08;;;;;;;15.00;13.40;;;;;;;;;;1497204;39;20023;-58
2021/06/05 01:40:12;;;;;;;15.43;13.80;;;;;;;;;;1497160;39;20031;-60
2021/06/05 01:41:15;;;;;;;14.63;13.02;;;;;;;;;;1496983;39;20038;-58
2021/06/05 01:42:21;;;;;;;15.60;13.90;;;;;;;;;;1496957;39;20035;-59
2021/06/05 01:43:25;;;;;;;16.90;13.20;;;;;;;;;;1497061;39;20035;-59
2021/06/05 01:44:31;;;;;;;17.58;14.20;;;;;;;;;;1497186;39;20027;-59
2021/06/05 01:45:37;;;;;;;17.27;13.63;;;;;;;;;;1497040;39;20024;-58
2021/06/05 01:46:41;;;;;;;15.60;13.18;;;;;;;;;;1496999;39;20039;-58
2021/06/05 01:47:43;;;;;;;16.70;13.65;;;;;;;;;;1497009;39;20280;-58
2021/06/05 01:48:43;;;;;;;16.40;14.38;;;;;;;;;;1497193;39;20026;-59
2021/06/05 01:49:47;;;;;;;17.48;14.23;;;;;;;;;;1496991;39;20027;-58
2021/06/05 01:50:48;;;;;;;16.25;14.52;;;;;;;;;;1497182;39;20028;-58
2021/06/05 01:51:53;;;;;;;15.43;13.82;;;;;;;;;;1497129;39;20043;-59
2021/06/05 01:52:59;;;;;;;15.75;13.73;;;;;;;;;;1497023;39;20306;-59
2021/06/05 01:54:06;;;;;;;14.80;13.20;;;;;;;;;;1497173;39;20120;-59
2021/06/05 01:55:12;;;;;;;16.92;13.55;;;;;;;;;;1497031;39;20283;-58
2021/06/05 01:56:18;;;;;;;16.13;12.93;;;;;;;;;;1497218;39;20031;-58
2021/06/05 01:57:24;;;;;;;15.20;13.57;;;;;;;;;;1492319;39;20411;-59
2021/06/05 01:58:29;;;;;;;16.05;13.38;;;;;;;;;;1492613;39;20058;-59
2021/06/05 01:59:30;;;;;;;14.77;12.85;;;;;;;;;;1497093;39;20061;-58
2021/06/05 02:00:35;;;;;;;16.27;12.85;;;;;;;;;;1497142;39;20035;-58
2021/06/05 02:01:36;;;;;;;15.38;12.45;;;;;;;;;;1497154;39;20092;-58
2021/06/05 02:02:37;;;;;;;13.63;12.23;;;;;;;;;;1497087;39;20079;-59
2021/06/05 02:03:39;;;;;;;16.13;13.13;;;;;;;;;;1497118;39;20031;-58
2021/06/05 02:04:40;;;;;;;13.98;12.05;;;;;;;;;;1496980;39;20035;-58
2021/06/05 02:05:42;;;;;;;13.45;12.05;;;;;;;;;;1496982;39;20034;-59
2021/06/05 02:06:47;;;;;;;15.02;12.10;;;;;;;;;;1496867;39;20318;-57
2021/06/05 02:07:52;;;;;;;14.05;11.98;;;;;;;;;;1497126;39;20071;-59
2021/06/05 02:08:54;;;;;;;13.25;11.85;;;;;;;;;;1497120;39;20027;-59
2021/06/05 02:09:55;;;;;;;14.98;12.05;;;;;;;;;;1496862;39;20030;-58
2021/06/05 02:11:02;;;;;;;13.38;11.55;;;;;;;;;;1497080;39;20116;-58
2021/06/05 02:12:09;;;;;;;14.35;11.73;;;;;;;;;;1496836;39;20039;-58
2021/06/05 02:13:17;;;;;;;13.23;11.50;;;;;;;;;;1496957;39;20031;-57
2021/06/05 02:14:22;;;;;;;14.05;12.18;;;;;;;;;;1497515;39;20107;-59
2021/06/05 02:15:27;;;;;;;14.38;12.02;;;;;;;;;;1497853;39;20039;-59
2021/06/05 02:16:31;;;;;;;13.13;11.55;;;;;;;;;;1497586;39;20027;-58
2021/06/05 02:17:36;;;;;;;14.43;11.65;;;;;;;;;;1497661;39;20035;-58
2021/06/05 02:18:42;;;;;;;12.77;11.25;;;;;;;;;;1497599;39;20031;-58
2021/06/05 02:19:48;;;;;;;13.10;11.32;;;;;;;;;;1497582;39;20381;-59
2021/06/05 02:20:53;;;;;;;12.70;10.60;;;;;;;;;;1497467;39;20380;-58
2021/06/05 02:21:57;;;;;;;14.60;11.55;;;;;;;;;;1497679;39;20035;-58
2021/06/05 02:23:01;;;;;;;12.82;11.40;;;;;;;;;;1497608;39;20089;-58
2021/06/05 02:24:07;;;;;;;13.00;11.60;;;;;;;;;;1497686;39;20027;-59
2021/06/05 02:25:14;;;;;;;13.82;11.38;;;;;;;;;;1497501;39;20386;-58
2021/06/05 02:26:18;;;;;;;14.48;12.02;;;;;;;;;;1497543;39;20039;-58
2021/06/05 02:27:23;;;;;;;16.30;12.77;;;;;;;;;;1497521;39;20036;-57
2021/06/05 02:28:26;;;;;;;15.15;12.73;;;;;;;;;;1497503;39;20387;-58
2021/06/05 02:29:31;;;;;;;15.05;12.57;;;;;;;;;;1497523;39;20027;-59
2021/06/05 02:30:34;;;;;;;15.60;12.30;;;;;;;;;;1497703;39;20031;-58
2021/06/05 02:31:37;;;;;;;13.80;11.82;;;;;;;;;;1497531;39;20287;-58
2021/06/05 02:32:39;;;;;;;15.35;12.52;;;;;;;;;;1497709;39;20076;-59
2021/06/05 02:33:40;;;;;;;14.15;11.98;;;;;;;;;;1497452;39;20027;-59
2021/06/05 02:34:44;;;;;;;14.52;12.65;;;;;;;;;;1497534;39;20024;-58
2021/06/05 02:35:46;;;;;;;14.82;13.13;;;;;;;;;;1497457;39;20024;-58
2021/06/05 02:36:51;;;;;;;15.30;13.57;;;;;;;;;;1492872;39;20032;-59
2021/06/05 02:37:52;;;;;;;16.67;14.32;;;;;;;;;;1493159;39;20028;-59
2021/06/05 02:38:54;;;;;;;18.02;14.27;;;;;;;;;;1497668;39;20145;-58
2021/06/05 02:39:56;;;;;;;18.42;13.75;;;;;;;;;;1497445;39;20108;-58
2021/06/05 02:40:58;;;;;;;17.50;13.93;;;;;;;;;;1497459;39;20032;-59
2021/06/05 02:42:00;;;;;;;16.42;13.80;;;;;;;;;;1497636;39;20054;-58
2021/06/05 02:43:05;;;;;;;15.48;13.40;;;;;;;;;;1497639;39;20038;-59
2021/06/05 02:44:09;;;;;;;15.48;13.82;;;;;;;;;;1497588;39;20023;-59
2021/06/05 02:45:16;;;;;;;16.17;13.95;;;;;;;;;;1497524;39;20303;-58
2021/06/05 02:46:20;;;;;;;16.40;14.23;;;;;;;;;;1497495;39;20023;-59
2021/06/05 02:47:24;;;;;;;16.83;14.13;;;;;;;;;;1497649;39;20028;-58
2021/06/05 02:48:37;;;;;;;18.15;13.93;;;;;;;;;;1497633;39;20027;-58
2021/06/05 02:49:40;;;;;;;17.75;14.82;;;;;;;;;;1497799;39;20031;-59
2021/06/05 02:50:44;;;;;;;19.42;15.45;;;;;;;;;;1497537;39;20034;-59
2021/06/05 02:51:49;;;;;;;19.85;15.90;;;;;;;;;;1497463;39;20302;-61
2021/06/05 02:52:50;;;;;;;16.95;15.02;;;;;;;;;;1497526;39;20031;-58
2021/06/05 02:53:52;;;;;;;18.90;15.55;;;;;;;;;;1497583;39;20485;-58
2021/06/05 02:54:53;;;;;;;18.92;15.40;;;;;;;;;;1497730;39;20099;-58
2021/06/05 02:55:54;;;;;;;20.85;16.73;;;;;;;;;;1497471;39;20124;-58
2021/06/05 02:56:58;;;;;;;18.88;16.75;;;;;;;;;;1497518;39;20463;-59
2021/06/05 02:58:00;;;;;;;19.55;16.80;;;;;;;;;;1497604;39;20386;-59
2021/06/05 02:59:01;;;;;;;19.38;16.15;;;;;;;;;;1497413;39;20027;-59
2021/06/05 03:00:05;;;;;;;20.58;17.40;;;;;;;;;;1497595;39;20032;-61
2021/06/05 03:01:08;;;;;;;22.05;17.55;;;;;;;;;;1497384;39;20038;-58
2021/06/05 03:02:09;;;;;;;19.08;16.05;;;;;;;;;;1497478;39;20128;-61
2021/06/05 03:03:12;;;;;;;21.40;17.20;;;;;;;;;;1497739;39;20040;-59
2021/06/05 03:04:14;;;;;;;19.80;16.92;;;;;;;;;;1497504;39;20294;-59
2021/06/05 03:05:15;;;;;;;19.73;16.38;;;;;;;;;;1497688;39;20050;-58
2021/06/05 03:06:16;;;;;;;20.38;16.27;;;;;;;;;;1497583;39;20027;-59
2021/06/05 03:07:17;;;;;;;20.77;17.45;;;;;;;;;;1497637;39;20039;-59
2021/06/05 03:08:21;;;;;;;20.30;16.70;;;;;;;;;;1497651;39;20036;-59
2021/06/05 03:09:23;;;;;;;22.02;17.58;;;;;;;;;;1497705;39;20027;-58
2021/06/05 03:10:25;;;;;;;20.42;16.27;;;;;;;;;;1497494;39;20397;-58
2021/06/05 03:11:28;;;;;;;21.70;17.88;;;;;;;;;;1497541;39;20054;-59
2021/06/05 03:12:29;;;;;;;20.15;17.55;;;;;;;;;;1497388;39;20038;-58
2021/06/05 03:13:30;;;;;;;23.05;18.13;;;;;;;;;;1497461;39;20038;-59
2021/06/05 03:14:31;;;;;;;24.83;18.08;;;;;;;;;;1497370;39;20391;-59
2021/06/05 03:15:34;;;;;;;23.38;18.30;;;;;;;;;;1497739;39;20027;-58
2021/06/05 03:16:35;;;;;;;22.65;18.45;;;;;;;;;;1497605;39;20027;-59
2021/06/05 03:17:37;;;;;;;20.25;17.80;;;;;;;;;;1497448;39;20271;-60
2021/06/05 03:18:38;;;;;;;24.88;18.35;;;;;;;;;;1497562;39;20028;-59
2021/06/05 03:19:40;;;;;;;20.63;17.35;;;;;;;;;;1497622;39;20031;-59
2021/06/05 03:20:45;;;;;;;21.17;18.13;;;;;;;;;;1497360;39;20023;-59
2021/06/05 03:21:46;;;;;;;25.55;19.60;;;;;;;;;;1497455;39;20314;-58
2021/06/05 03:22:47;;;;;;;22.17;19.50;;;;;;;;;;1497645;39;20039;-59
2021/06/05 03:23:50;;;;;;;22.20;18.88;;;;;;;;;;1497379;39;20028;-59
2021/06/05 03:24:52;;;;;;;23.13;19.00;;;;;;;;;;1497307;39;20264;-59
2021/06/05 03:25:53;;;;;;;24.33;18.55;;;;;;;;;;1497604;39;20043;-59
2021/06/05 03:26:56;;;;;;;24.77;19.67;;;;;;;;;;1497737;39;20112;-58
2021/06/05 03:27:58;;;;;;;25.95;20.42;;;;;;;;;;1497658;39;20034;-59
2021/06/05 03:28:59;;;;;;;23.52;19.23;;;;;;;;;;1497549;39;20028;-59
2021/06/05 03:30:01;;;;;;;25.17;19.45;;;;;;;;;;1497479;39;20058;-59
2021/06/05 03:31:03;;;;;;;26.05;19.65;;;;;;;;;;1497324;39;20298;-58
2021/06/05 03:32:06;;;;;;;25.80;19.38;;;;;;;;;;1497306;39;20083;-58
2021/06/05 03:33:08;;;;;;;23.73;18.17;;;;;;;;;;1497392;39;20023;-59
2021/06/05 03:34:09;;;;;;;25.33;20.00;;;;;;;;;;1497609;39;20035;-59
2021/06/05 03:35:12;;;;;;;26.05;19.30;;;;;;;;;;1497571;39;20023;-59
2021/06/05 03:36:14;;;;;;;26.05;19.00;;;;;;;;;;1497604;39;20031;-58
2021/06/05 03:37:15;;;;;;;24.20;19.30;;;;;;;;;;1497559;39;20028;-59
2021/06/05 03:38:17;;;;;;;25.02;19.00;;;;;;;;;;1497436;39;20298;-59
2021/06/05 03:39:18;;;;;;;24.75;18.85;;;;;;;;;;1497508;39;20023;-58
2021/06/05 03:40:24;;;;;;;22.15;18.30;;;;;;;;;;1497297;39;20405;-58
2021/06/05 03:41:25;;;;;;;21.48;18.40;;;;;;;;;;1497505;39;20027;-59
2021/06/05 03:42:26;;;;;;;23.13;19.15;;;;;;;;;;1497500;39;20328;-58
2021/06/05 03:43:27;;;;;;;24.60;17.90;;;;;;;;;;1497306;39;20108;-59
2021/06/05 03:44:28;;;;;;;23.17;17.85;;;;;;;;;;1497395;39;20464;-59
2021/06/05 03:45:29;;;;;;;21.55;17.25;;;;;;;;;;1497269;39;20383;-58
2021/06/05 03:46:32;;;;;;;21.08;17.23;;;;;;;;;;1497639;39;20027;-59
2021/06/05 03:47:33;;;;;;;21.77;17.52;;;;;;;;;;1497333;39;20023;-59
2021/06/05 03:48:35;;;;;;;20.05;16.75;;;;;;;;;;1497349;39;20058;-59
2021/06/05 03:49:35;;;;;;;20.50;17.08;;;;;;;;;;1497289;39;20023;-59
2021/06/05 03:50:40;;;;;;;21.30;16.58;;;;;;;;;;1497336;39;20038;-58
2021/06/05 03:51:41;;;;;;;20.67;16.33;;;;;;;;;;1497325;39;20297;-59
2021/06/05 03:52:42;;;;;;;21.10;16.92;;;;;;;;;;1497371;39;20368;-59
2021/06/05 03:53:43;;;;;;;20.83;17.20;;;;;;;;;;1497680;39;20089;-59
2021/06/05 03:54:44;;;;;;;21.33;17.05;;;;;;;;;;1497372;39;20276;-59
2021/06/05 03:55:45;;;;;;;20.30;15.80;;;;;;;;;;1497339;39;20034;-58
2021/06/05 03:56:46;;;;;;;22.27;16.65;;;;;;;;;;1497458;39;20031;-58
2021/06/05 03:57:48;;;;;;;20.83;15.77;;;;;;;;;;1497290;39;20031;-59
2021/06/05 03:58:51;;;;;;;18.60;15.65;;;;;;;;;;1497459;39;20073;-59
2021/06/05 03:59:54;;;;;;;19.45;15.93;;;;;;;;;;1497368;39;20366;-59
2021/06/05 04:00:56;;;;;;;18.50;15.30;;;;;;;;;;1497246;39;20059;-58
2021/06/05 04:01:59;;;;;;;20.83;14.95;;;;;;;;;;1497383;39;20068;-58
2021/06/05 04:03:00;;;;;;;21.05;15.20;;;;;;;;;;1497526;39;20027;-58
2021/06/05 04:04:03;;;;;;;17.75;13.98;;;;;;;;;;1492690;39;20024;-59
2021/06/05 04:05:05;;;;;;;18.85;14.80;;;;;;;;;;1492696;39;20043;-60
2021/06/05 04:06:07;;;;;;;17.98;14.18;;;;;;;;;;1497326;39;20039;-58
2021/06/05 04:07:09;;;;;;;17.50;14.32;;;;;;;;;;1497251;39;20027;-58
2021/06/05 04:08:12;;;;;;;18.00;14.10;;;;;;;;;;1497347;39;20275;-59
2021/06/05 04:09:12;;;;;;;16.40;13.73;;;;;;;;;;1497487;39;20036;-59
2021/06/05 04:10:15;;;;;;;17.02;12.65;;;;;;;;;;1497342;39;20383;-58
2021/06/05 04:11:17;;;;;;;17.17;13.13;;;;;;;;;;1497260;39;20304;-58
2021/06/05 04:12:18;;;;;;;16.42;12.93;;;;;;;;;;1497241;39;20035;-58
2021/06/05 04:13:19;;;;;;;16.73;13.25;;;;;;;;;;1497581;39;20374;-57
2021/06/05 04:14:20;;;;;;;15.00;12.35;;;;;;;;;;1497245;39;20038;-59
2021/06/05 04:15:24;;;;;;;17.38;12.80;;;;;;;;;;1497285;39;20027;-58
2021/06/05 04:16:25;;;;;;;15.65;11.73;;;;;;;;;;1497345;39;20026;-58
2021/06/05 04:17:28;;;;;;;14.88;11.60;;;;;;;;;;1497407;39;20104;-58
2021/06/05 04:18:31;;;;;;;14.32;12.63;;;;;;;;;;1497312;39;20111;-58
2021/06/05 04:19:32;;;;;;;15.18;12.10;;;;;;;;;;1497228;39;20395;-59
2021/06/05 04:20:34;;;;;;;15.52;11.82;;;;;;;;;;1497205;39;20027;-58
2021/06/05 04:21:35;;;;;;;16.42;11.75;;;;;;;;;;1497241;39;20039;-58
2021/06/05 04:22:37;;;;;;;14.07;11.25;;;;;;;;;;1497295;39;20031;-58
2021/06/05 04:23:38;;;;;;;13.05;11.18;;;;;;;;;;1497406;39;20028;-58
2021/06/05 04:24:39;;;;;;;15.95;11.07;;;;;;;;;;1497340;39;20124;-59
2021/06/05 04:25:41;;;;;;;16.02;10.68;;;;;;;;;;1497301;39;20067;-58
2021/06/05 04:26:42;;;;;;;14.63;11.05;;;;;;;;;;1497530;39;20137;-58
2021/06/05 04:27:43;;;;;;;13.15;10.23;;;;;;;;;;1497396;39;20028;-58
2021/06/05 04:28:44;;;;;;;12.73;9.93;;;;;;;;;;1497485;39;20035;-56
2021/06/05 04:29:45;;;;;;;12.35;10.10;;;;;;;;;;1497144;39;20417;-59
2021/06/05 04:30:48;;;;;;;12.95;10.13;;;;;;;;;;1497371;39;20031;-58
2021/06/05 04:31:49;;;;;;;13.55;10.13;;;;;;;;;;1497114;39;20042;-59
2021/06/05 04:32:52;;;;;;;14.27;10.35;;;;;;;;;;1497422;39;20031;-58
2021/06/05 04:33:52;;;;;;;15.52;10.00;;;;;;;;;;1497272;39;20024;-58
2021/06/05 04:34:54;;;;;;;13.80;9.75;;;;;;;;;;1497233;39;20027;-59
2021/06/05 04:35:56;;;;;;;12.50;9.07;;;;;;;;;;1497083;39;20031;-59
2021/06/05 04:36:57;;;;;;;12.02;8.90;;;;;;;;;;1497090;39;20032;-58
2021/06/05 04:37:58;;;;;;;12.32;8.82;;;;;;;;;;1497246;39;20271;-58
2021/06/05 04:38:59;;;;;;;11.75;8.93;;;;;;;;;;1497133;39;20107;-59
2021/06/05 04:40:01;;;;;;;12.38;9.02;;;;;;;;;;1497429;39;20039;-58
2021/06/05 04:41:02;;;;;;;12.30;8.93;;;;;;;;;;1497252;39;20031;-59
2021/06/05 04:42:04;;;;;;;12.25;8.90;;;;;;;;;;1497091;39;20039;-58
2021/06/05 04:43:07;;;;;;;12.02;9.75;;;;;;;;;;1497222;39;20087;-59
2021/06/05 04:44:07;;;;;;;13.05;9.00;;;;;;;;;;1497409;39;20032;-59
2021/06/05 04:45:10;;;;;;;13.73;9.82;;;;;;;;;;1497448;39;20332;-59
2021/06/05 04:46:12;;;;;;;10.43;8.93;;;;;;;;;;1497124;39;20034;-59
2021/06/05 04:47:13;;;;;;;11.75;9.57;;;;;;;;;;1497351;39;20027;-59
2021/06/05 04:48:16;;;;;;;14.25;9.73;;;;;;;;;;1497233;39;20375;-58
2021/06/05 04:49:18;;;;;;;11.90;9.80;;;;;;;;;;1497376;39;20032;-58
2021/06/05 04:50:22;;;;;;;11.90;8.85;;;;;;;;;;1497166;39;20031;-59
2021/06/05 04:51:25;;;;;;;11.90;9.30;;;;;;;;;;1492607;39;20049;-58
2021/06/05 04:52:26;;;;;;;12.82;8.98;;;;;;;;;;1492603;39;20422;-58
2021/06/05 04:53:28;;;;;;;12.23;9.05;;;;;;;;;;1497124;39;20112;-58
2021/06/05 04:54:29;;;;;;;10.63;9.32;;;;;;;;;;1497161;39;20088;-59
2021/06/05 04:55:30;;;;;;;11.73;8.73;;;;;;;;;;1497240;39;20035;-58
2021/06/05 04:56:36;;;;;;;10.82;8.88;;;;;;;;;;1497293;39;20035;-58
2021/06/05 04:57:37;;;;;;;13.77;9.27;;;;;;;;;;1497422;39;20038;-58
2021/06/05 04:58:38;;;;;;;13.07;9.52;;;;;;;;;;1497136;39;20019;-58
2021/06/05 04:59:39;;;;;;;14.80;9.00;;;;;;;;;;1497403;39;20034;-58
2021/06/05 05:00:42;;;;;;;12.75;9.15;;;;;;;;;;1497220;39;20034;-59
2021/06/05 05:01:43;;;;;;;12.65;9.00;;;;;;;;;;1497166;39;20032;-61
2021/06/05 05:02:44;;;;;;;11.13;8.60;;;;;;;;;;1497273;39;20027;-59
2021/06/05 05:03:47;;;;;;;11.77;8.82;;;;;;;;;;1497202;39;20406;-58
2021/06/05 05:04:48;;;;;;;11.98;9.00;;;;;;;;;;1497372;39;20023;-60
2021/06/05 05:05:49;;;;;;;15.15;9.32;;;;;;;;;;1497229;39;20027;-59
2021/06/05 05:06:50;;;;;;;14.90;9.60;;;;;;;;;;1497064;39;20024;-59
2021/06/05 05:07:53;;;;;;;13.73;9.60;;;;;;;;;;1497255;39;20027;-59
2021/06/05 05:08:54;;;;;;;9.80;8.77;;;;;;;;;;1497100;39;20044;-58
2021/06/05 05:09:56;;;;;;;12.00;9.77;;;;;;;;;;1497123;39;20031;-59
2021/06/05 05:10:58;;;;;;;12.85;9.50;;;;;;;;;;1497248;39;20028;-59
2021/06/05 05:11:59;;;;;;;11.30;9.50;;;;;;;;;;1497225;39;20027;-58
2021/06/05 05:13:01;;;;;;;11.38;9.27;;;;;;;;;;1497229;39;20030;-58
2021/06/05 05:14:03;;;;;;;12.02;9.52;;;;;;;;;;1497272;39;20378;-58
2021/06/05 05:15:05;;;;;;;12.45;9.48;;;;;;;;;;1497260;39;20023;-59
2021/06/05 05:16:07;;;;;;;11.88;9.20;;;;;;;;;;1497142;39;20035;-59
2021/06/05 05:17:09;;;;;;;13.55;9.68;;;;;;;;;;1497222;39;20106;-59
2021/06/05 05:18:10;;;;;;;13.05;9.23;;;;;;;;;;1497222;39;20027;-59
2021/06/05 05:19:13;;;;;;;13.90;9.13;;;;;;;;;;1497189;39;20023;-59
2021/06/05 05:20:17;;;;;;;11.15;8.57;;;;;;;;;;1497353;39;20097;-59
2021/06/05 05:21:20;;;;;;;11.15;8.43;;;;;;;;;;1497360;39;20104;-59
2021/06/05 05:22:21;;;;;;;10.38;8.65;;;;;;;;;;1497171;39;20027;-59
2021/06/05 05:23:27;;;;;;;10.05;8.10;;;;;;;;;;1497316;39;20124;-59
2021/06/05 05:24:28;;;;;;;9.98;8.20;;;;;;;;;;1497088;39;20108;-59
2021/06/05 05:25:29;;;;;;;11.32;8.07;;;;;;;;;;1496998;39;20112;-58
2021/06/05 05:26:30;;;;;;;10.80;8.20;;;;;;;;;;1497175;39;20038;-59
2021/06/05 05:27:32;;;;;;;10.15;7.97;;;;;;;;;;1497263;39;20050;-59
2021/06/05 05:28:34;;;;;;;10.02;7.55;;;;;;;;;;1497049;39;20027;-59
2021/06/05 05:29:35;;;;;;;12.52;7.82;;;;;;;;;;1497150;39;20299;-59
2021/06/05 05:30:39;;;;;;;10.88;7.78;;;;;;;;;;1497011;39;20035;-60
2021/06/05 05:31:41;;;;;;;10.45;7.53;;;;;;;;;;1492290;39;20032;-60
2021/06/05 05:32:41;;;;;;;7.72;6.65;;;;;;;;;;1492347;39;20039;-59
2021/06/05 05:33:44;;;;;;;11.15;6.68;;;;;;;;;;1497324;39;20039;-59
2021/06/05 05:34:46;;;;;;;11.00;6.82;;;;;;;;;;1497049;39;20391;-59
2021/06/05 05:35:48;;;;;;;8.02;6.53;;;;;;;;;;1497093;39;20027;-59
2021/06/05 05:36:49;;;;;;;10.18;6.30;;;;;;;;;;1497065;39;20034;-59
2021/06/05 05:37:51;;;;;;;9.65;6.75;;;;;;;;;;1497364;39;20032;-59
2021/06/05 05:38:52;;;;;;;8.40;6.00;;;;;;;;;;1496970;39;20118;-59
2021/06/05 05:39:54;;;;;;;7.47;6.30;;;;;;;;;;1497176;39;20119;-58
2021/06/05 05:40:55;;;;;;;10.13;6.40;;;;;;;;;;1497196;39;20023;-59
2021/06/05 05:41:56;;;;;;;7.80;6.05;;;;;;;;;;1497287;39;20306;-59
2021/06/05 05:42:57;;;;;;;9.20;5.85;;;;;;;;;;1496980;39;20028;-59
2021/06/05 05:43:58;;;;;;;9.05;5.65;;;;;;;;;;1497281;39;20034;-59
2021/06/05 05:44:59;;;;;;;6.70;4.97;;;;;;;;;;1497013;39;20053;-57
2021/06/05 05:46:04;;;;;;;7.35;5.60;;;;;;;;;;1496994;39;20027;-59
2021/06/05 05:47:05;;;;;;;8.63;5.78;;;;;;;;;;1497015;39;20027;-59
2021/06/05 05:48:09;;;;;;;9.15;6.20;;;;;;;;;;1496634;39;20035;-59
2021/06/05 05:49:10;;;;;;;7.72;5.63;;;;;;;;;;1497123;39;20035;-58
2021/06/05 05:50:15;;;;;;;7.53;5.45;;;;;;;;;;1497031;39;20035;-59
2021/06/05 05:51:18;;;;;;;6.60;5.28;;;;;;;;;;1496961;39;20028;-60
2021/06/05 05:52:19;;;;;;;7.05;5.00;;;;;;;;;;1497135;39;20032;-59
2021/06/05 05:53:20;;;;;;;7.38;5.32;;;;;;;;;;1497039;39;20030;-59
2021/06/05 05:54:22;;;;;;;8.60;5.20;;;;;;;;;;1497164;39;20031;-59
2021/06/05 05:55:23;;;;;;;8.23;5.05;;;;;;;;;;1496918;39;20024;-60
2021/06/05 05:56:27;;;;;;;6.38;5.00;;;;;;;;;;1497056;39;20407;-60
2021/06/05 05:57:27;;;;;;;7.10;5.13;;;;;;;;;;1497177;39;20068;-59
2021/06/05 05:58:29;;;;;;;8.07;5.22;;;;;;;;;;1497156;39;20397;-59
2021/06/05 05:59:30;;;;;;;6.95;5.20;;;;;;;;;;1497130;39;20035;-60
2021/06/05 06:00:36;;;;;;;9.77;5.18;;;;;;;;;;1497235;39;20027;-58
2021/06/05 06:01:37;;;;;;;5.72;4.85;;;;;;;;;;1496964;39;20023;-59
2021/06/05 06:02:39;;;;;;;7.20;4.78;;;;;;;;;;1496857;39;20047;-59
2021/06/05 06:03:39;;;;;;;7.00;5.00;;;;;;;;;;1497134;39;20031;-59
2021/06/05 06:04:41;;;;;;;7.13;5.00;;;;;;;;;;1497135;39;20054;-59
2021/06/05 06:05:43;;;;;;;7.78;5.15;;;;;;;;;;1496931;39;20039;-58
2021/06/05 06:06:44;;;;;;;6.53;4.75;;;;;;;;;;1497073;39;20480;-59
2021/06/05 06:07:45;;;;;;;6.82;4.97;;;;;;;;;;1497091;39;20027;-59